sensor_id;sensor_type;location;lat;lon;timestamp;P1;durP1;ratioP1;P2;durP2;ratioP2
1567;SDS011;777;47.156;8.326;2023-12-04T00:01:34;74.47;;;50.22;;
1567;SDS011;777;47.156;8.326;2023-12-04T00:04:01;70.40;;;49.17;;
1567;SDS011;777;47.156;8.326;2023-12-04T00:06:29;80.25;;;52.17;;
1567;SDS011;777;47.156;8.326;2023-12-04T00:08:56;80.20;;;51.70;;
1567;SDS011;777;47.156;8.326;2023-12-04T00:11:23;83.03;;;51.88;;
1567;SDS011;777;47.156;8.326;2023-12-04T00:13:50;74.22;;;50.47;;
1567;SDS011;777;47.156;8.326;2023-12-04T00:16:18;77.60;;;51.95;;
1567;SDS011;777;47.156;8.326;2023-12-04T00:18:44;78.10;;;51.40;;
1567;SDS011;777;47.156;8.326;2023-12-04T00:21:12;73.95;;;49.58;;
1567;SDS011;777;47.156;8.326;2023-12-04T00:23:40;66.43;;;47.30;;
1567;SDS011;777;47.156;8.326;2023-12-04T00:26:07;78.93;;;51.03;;
1567;SDS011;777;47.156;8.326;2023-12-04T00:28:35;82.45;;;53.38;;
1567;SDS011;777;47.156;8.326;2023-12-04T00:31:03;90.47;;;49.33;;
1567;SDS011;777;47.156;8.326;2023-12-04T00:33:30;70.13;;;48.25;;
1567;SDS011;777;47.156;8.326;2023-12-04T00:35:57;70.43;;;48.40;;
1567;SDS011;777;47.156;8.326;2023-12-04T00:38:24;72.18;;;49.20;;
1567;SDS011;777;47.156;8.326;2023-12-04T00:40:52;91.05;;;56.38;;
1567;SDS011;777;47.156;8.326;2023-12-04T00:43:19;108.45;;;59.05;;
1567;SDS011;777;47.156;8.326;2023-12-04T00:45:46;104.05;;;60.05;;
1567;SDS011;777;47.156;8.326;2023-12-04T00:48:13;97.82;;;51.92;;
1567;SDS011;777;47.156;8.326;2023-12-04T00:50:40;104.72;;;54.50;;
1567;SDS011;777;47.156;8.326;2023-12-04T00:53:07;79.90;;;47.17;;
1567;SDS011;777;47.156;8.326;2023-12-04T00:55:33;78.82;;;48.90;;
1567;SDS011;777;47.156;8.326;2023-12-04T00:58:02;71.88;;;45.80;;
1567;SDS011;777;47.156;8.326;2023-12-04T01:00:29;74.35;;;47.05;;
1567;SDS011;777;47.156;8.326;2023-12-04T01:02:56;81.80;;;47.05;;
1567;SDS011;777;47.156;8.326;2023-12-04T01:05:22;78.28;;;47.97;;
1567;SDS011;777;47.156;8.326;2023-12-04T01:07:50;96.07;;;47.90;;
1567;SDS011;777;47.156;8.326;2023-12-04T01:10:17;146.23;;;43.97;;
1567;SDS011;777;47.156;8.326;2023-12-04T01:12:43;89.88;;;54.00;;
1567;SDS011;777;47.156;8.326;2023-12-04T01:15:12;138.73;;;50.05;;
1567;SDS011;777;47.156;8.326;2023-12-04T01:17:39;158.38;;;47.42;;
1567;SDS011;777;47.156;8.326;2023-12-04T01:20:06;132.27;;;46.58;;
1567;SDS011;777;47.156;8.326;2023-12-04T01:22:34;139.43;;;46.60;;
1567;SDS011;777;47.156;8.326;2023-12-04T01:25:01;91.35;;;46.03;;
1567;SDS011;777;47.156;8.326;2023-12-04T01:27:28;79.38;;;44.08;;
1567;SDS011;777;47.156;8.326;2023-12-04T01:29:55;80.15;;;47.03;;
1567;SDS011;777;47.156;8.326;2023-12-04T01:32:23;81.85;;;42.63;;
1567;SDS011;777;47.156;8.326;2023-12-04T01:34:50;113.57;;;44.15;;
1567;SDS011;777;47.156;8.326;2023-12-04T01:37:17;187.45;;;48.28;;
1567;SDS011;777;47.156;8.326;2023-12-04T01:39:44;82.78;;;44.90;;
1567;SDS011;777;47.156;8.326;2023-12-04T01:42:11;120.22;;;47.67;;
1567;SDS011;777;47.156;8.326;2023-12-04T01:44:38;170.75;;;48.80;;
1567;SDS011;777;47.156;8.326;2023-12-04T01:47:05;111.00;;;48.25;;
1567;SDS011;777;47.156;8.326;2023-12-04T01:49:34;99.32;;;48.47;;
1567;SDS011;777;47.156;8.326;2023-12-04T01:52:02;138.82;;;50.35;;
1567;SDS011;777;47.156;8.326;2023-12-04T01:54:30;142.45;;;48.85;;
1567;SDS011;777;47.156;8.326;2023-12-04T01:56:58;101.22;;;47.88;;
1567;SDS011;777;47.156;8.326;2023-12-04T01:59:25;142.70;;;48.92;;
1567;SDS011;777;47.156;8.326;2023-12-04T02:01:52;199.35;;;55.10;;
1567;SDS011;777;47.156;8.326;2023-12-04T02:04:20;198.70;;;53.40;;
1567;SDS011;777;47.156;8.326;2023-12-04T02:06:48;208.15;;;53.72;;
1567;SDS011;777;47.156;8.326;2023-12-04T02:09:15;149.68;;;54.00;;
1567;SDS011;777;47.156;8.326;2023-12-04T02:11:43;132.93;;;56.63;;
1567;SDS011;777;47.156;8.326;2023-12-04T02:14:10;124.72;;;56.35;;
1567;SDS011;777;47.156;8.326;2023-12-04T02:16:38;118.18;;;54.05;;
1567;SDS011;777;47.156;8.326;2023-12-04T02:19:07;118.32;;;54.28;;
1567;SDS011;777;47.156;8.326;2023-12-04T02:21:37;112.45;;;54.45;;
1567;SDS011;777;47.156;8.326;2023-12-04T02:24:05;111.05;;;55.10;;
1567;SDS011;777;47.156;8.326;2023-12-04T02:26:34;102.18;;;52.80;;
1567;SDS011;777;47.156;8.326;2023-12-04T02:29:07;101.15;;;51.85;;
1567;SDS011;777;47.156;8.326;2023-12-04T02:31:38;95.65;;;50.22;;
1567;SDS011;777;47.156;8.326;2023-12-04T02:34:07;100.30;;;51.17;;
1567;SDS011;777;47.156;8.326;2023-12-04T02:36:35;106.10;;;50.70;;
1567;SDS011;777;47.156;8.326;2023-12-04T02:39:05;89.40;;;48.75;;
1567;SDS011;777;47.156;8.326;2023-12-04T02:41:32;107.30;;;50.55;;
1567;SDS011;777;47.156;8.326;2023-12-04T02:43:59;93.85;;;47.30;;
1567;SDS011;777;47.156;8.326;2023-12-04T02:46:26;97.03;;;50.22;;
1567;SDS011;777;47.156;8.326;2023-12-04T02:48:53;91.97;;;48.65;;
1567;SDS011;777;47.156;8.326;2023-12-04T02:51:20;91.93;;;48.50;;
1567;SDS011;777;47.156;8.326;2023-12-04T02:53:47;100.93;;;47.80;;
1567;SDS011;777;47.156;8.326;2023-12-04T02:56:15;96.20;;;46.97;;
1567;SDS011;777;47.156;8.326;2023-12-04T02:58:42;106.75;;;48.88;;
1567;SDS011;777;47.156;8.326;2023-12-04T03:01:09;88.53;;;46.70;;
1567;SDS011;777;47.156;8.326;2023-12-04T03:03:36;91.72;;;46.97;;
1567;SDS011;777;47.156;8.326;2023-12-04T03:06:03;82.72;;;45.78;;
1567;SDS011;777;47.156;8.326;2023-12-04T03:08:30;82.97;;;45.10;;
1567;SDS011;777;47.156;8.326;2023-12-04T03:10:57;90.28;;;46.63;;
1567;SDS011;777;47.156;8.326;2023-12-04T03:13:26;85.95;;;46.28;;
1567;SDS011;777;47.156;8.326;2023-12-04T03:15:52;91.40;;;48.63;;
1567;SDS011;777;47.156;8.326;2023-12-04T03:18:19;97.10;;;49.38;;
1567;SDS011;777;47.156;8.326;2023-12-04T03:20:48;203.30;;;52.05;;
1567;SDS011;777;47.156;8.326;2023-12-04T03:23:15;153.45;;;54.10;;
1567;SDS011;777;47.156;8.326;2023-12-04T03:25:42;111.10;;;51.67;;
1567;SDS011;777;47.156;8.326;2023-12-04T03:28:09;138.45;;;53.03;;
1567;SDS011;777;47.156;8.326;2023-12-04T03:30:37;103.72;;;52.70;;
1567;SDS011;777;47.156;8.326;2023-12-04T03:33:04;113.28;;;53.92;;
1567;SDS011;777;47.156;8.326;2023-12-04T03:35:31;102.18;;;52.75;;
1567;SDS011;777;47.156;8.326;2023-12-04T03:37:57;104.00;;;52.83;;
1567;SDS011;777;47.156;8.326;2023-12-04T03:40:24;103.30;;;53.55;;
1567;SDS011;777;47.156;8.326;2023-12-04T03:42:51;109.13;;;54.15;;
1567;SDS011;777;47.156;8.326;2023-12-04T03:45:18;131.23;;;56.33;;
1567;SDS011;777;47.156;8.326;2023-12-04T03:47:46;113.55;;;55.75;;
1567;SDS011;777;47.156;8.326;2023-12-04T03:50:13;118.25;;;54.95;;
1567;SDS011;777;47.156;8.326;2023-12-04T03:52:40;106.78;;;54.05;;
1567;SDS011;777;47.156;8.326;2023-12-04T03:55:08;115.55;;;54.72;;
1567;SDS011;777;47.156;8.326;2023-12-04T03:57:35;120.18;;;56.70;;
1567;SDS011;777;47.156;8.326;2023-12-04T04:00:02;118.78;;;54.63;;
1567;SDS011;777;47.156;8.326;2023-12-04T04:02:37;108.18;;;54.65;;
1567;SDS011;777;47.156;8.326;2023-12-04T04:05:07;118.90;;;55.22;;
1567;SDS011;777;47.156;8.326;2023-12-04T04:07:34;101.15;;;53.20;;
1567;SDS011;777;47.156;8.326;2023-12-04T04:10:01;103.15;;;50.78;;
1567;SDS011;777;47.156;8.326;2023-12-04T04:12:29;107.18;;;52.65;;
1567;SDS011;777;47.156;8.326;2023-12-04T04:14:56;102.18;;;52.38;;
1567;SDS011;777;47.156;8.326;2023-12-04T04:17:23;99.07;;;51.00;;
1567;SDS011;777;47.156;8.326;2023-12-04T04:19:51;93.85;;;49.50;;
1567;SDS011;777;47.156;8.326;2023-12-04T04:22:19;102.25;;;52.08;;
1567;SDS011;777;47.156;8.326;2023-12-04T04:24:46;97.47;;;53.17;;
1567;SDS011;777;47.156;8.326;2023-12-04T04:27:13;105.63;;;52.90;;
1567;SDS011;777;47.156;8.326;2023-12-04T04:29:41;96.85;;;50.88;;
1567;SDS011;777;47.156;8.326;2023-12-04T04:32:08;99.18;;;53.83;;
1567;SDS011;777;47.156;8.326;2023-12-04T04:34:34;101.30;;;52.50;;
1567;SDS011;777;47.156;8.326;2023-12-04T04:37:01;106.88;;;53.90;;
1567;SDS011;777;47.156;8.326;2023-12-04T04:39:30;100.35;;;53.22;;
1567;SDS011;777;47.156;8.326;2023-12-04T04:41:57;98.70;;;52.33;;
1567;SDS011;777;47.156;8.326;2023-12-04T04:44:24;102.68;;;54.00;;
1567;SDS011;777;47.156;8.326;2023-12-04T04:46:50;98.95;;;52.42;;
1567;SDS011;777;47.156;8.326;2023-12-04T04:49:17;135.82;;;55.25;;
1567;SDS011;777;47.156;8.326;2023-12-04T04:51:44;120.97;;;54.22;;
1567;SDS011;777;47.156;8.326;2023-12-04T04:54:11;108.35;;;54.72;;
1567;SDS011;777;47.156;8.326;2023-12-04T04:56:39;105.82;;;53.50;;
1567;SDS011;777;47.156;8.326;2023-12-04T04:59:06;115.63;;;54.30;;
1567;SDS011;777;47.156;8.326;2023-12-04T05:01:33;109.55;;;53.65;;
1567;SDS011;777;47.156;8.326;2023-12-04T05:04:01;122.05;;;54.55;;
1567;SDS011;777;47.156;8.326;2023-12-04T05:06:28;113.38;;;55.92;;
1567;SDS011;777;47.156;8.326;2023-12-04T05:08:57;115.75;;;54.30;;
1567;SDS011;777;47.156;8.326;2023-12-04T05:11:24;113.55;;;55.17;;
1567;SDS011;777;47.156;8.326;2023-12-04T05:13:52;129.65;;;57.47;;
1567;SDS011;777;47.156;8.326;2023-12-04T05:16:19;135.15;;;60.60;;
1567;SDS011;777;47.156;8.326;2023-12-04T05:18:46;111.72;;;56.50;;
1567;SDS011;777;47.156;8.326;2023-12-04T05:21:13;118.82;;;57.88;;
1567;SDS011;777;47.156;8.326;2023-12-04T05:23:40;110.40;;;56.72;;
1567;SDS011;777;47.156;8.326;2023-12-04T05:26:07;121.13;;;59.17;;
1567;SDS011;777;47.156;8.326;2023-12-04T05:28:34;132.05;;;59.25;;
1567;SDS011;777;47.156;8.326;2023-12-04T05:31:03;129.57;;;58.42;;
1567;SDS011;777;47.156;8.326;2023-12-04T05:33:30;133.77;;;57.63;;
1567;SDS011;777;47.156;8.326;2023-12-04T05:35:57;129.95;;;59.15;;
1567;SDS011;777;47.156;8.326;2023-12-04T05:38:26;144.50;;;59.60;;
1567;SDS011;777;47.156;8.326;2023-12-04T05:40:53;141.40;;;58.30;;
1567;SDS011;777;47.156;8.326;2023-12-04T05:43:20;259.30;;;61.63;;
1567;SDS011;777;47.156;8.326;2023-12-04T05:45:47;133.00;;;58.72;;
1567;SDS011;777;47.156;8.326;2023-12-04T05:48:15;222.55;;;63.60;;
1567;SDS011;777;47.156;8.326;2023-12-04T05:50:42;243.43;;;60.92;;
1567;SDS011;777;47.156;8.326;2023-12-04T05:53:09;237.05;;;63.25;;
1567;SDS011;777;47.156;8.326;2023-12-04T05:55:37;212.25;;;60.67;;
1567;SDS011;777;47.156;8.326;2023-12-04T05:58:04;202.05;;;63.88;;
1567;SDS011;777;47.156;8.326;2023-12-04T06:00:31;141.82;;;58.78;;
1567;SDS011;777;47.156;8.326;2023-12-04T06:02:58;188.68;;;60.72;;
1567;SDS011;777;47.156;8.326;2023-12-04T06:05:26;168.93;;;63.75;;
1567;SDS011;777;47.156;8.326;2023-12-04T06:07:53;182.35;;;61.90;;
1567;SDS011;777;47.156;8.326;2023-12-04T06:10:20;259.27;;;61.97;;
1567;SDS011;777;47.156;8.326;2023-12-04T06:12:47;280.42;;;62.70;;
1567;SDS011;777;47.156;8.326;2023-12-04T06:15:14;173.13;;;57.50;;
1567;SDS011;777;47.156;8.326;2023-12-04T06:17:41;155.70;;;56.53;;
1567;SDS011;777;47.156;8.326;2023-12-04T06:20:08;172.73;;;59.40;;
1567;SDS011;777;47.156;8.326;2023-12-04T06:22:38;145.38;;;57.20;;
1567;SDS011;777;47.156;8.326;2023-12-04T06:25:06;148.13;;;58.70;;
1567;SDS011;777;47.156;8.326;2023-12-04T06:27:34;122.70;;;55.63;;
1567;SDS011;777;47.156;8.326;2023-12-04T06:30:01;125.25;;;56.38;;
1567;SDS011;777;47.156;8.326;2023-12-04T06:32:29;116.45;;;53.85;;
1567;SDS011;777;47.156;8.326;2023-12-04T06:34:57;207.18;;;55.42;;
1567;SDS011;777;47.156;8.326;2023-12-04T06:37:25;132.15;;;54.75;;
1567;SDS011;777;47.156;8.326;2023-12-04T06:39:53;119.20;;;55.67;;
1567;SDS011;777;47.156;8.326;2023-12-04T06:42:21;157.90;;;56.35;;
1567;SDS011;777;47.156;8.326;2023-12-04T06:44:49;163.07;;;55.45;;
1567;SDS011;777;47.156;8.326;2023-12-04T06:47:17;156.90;;;57.00;;
1567;SDS011;777;47.156;8.326;2023-12-04T06:49:47;147.15;;;55.35;;
1567;SDS011;777;47.156;8.326;2023-12-04T06:52:14;136.95;;;56.33;;
1567;SDS011;777;47.156;8.326;2023-12-04T06:54:41;115.68;;;55.38;;
1567;SDS011;777;47.156;8.326;2023-12-04T06:57:09;111.70;;;53.35;;
1567;SDS011;777;47.156;8.326;2023-12-04T06:59:36;110.18;;;54.03;;
1567;SDS011;777;47.156;8.326;2023-12-04T07:02:03;109.72;;;53.83;;
1567;SDS011;777;47.156;8.326;2023-12-04T07:04:30;114.95;;;52.80;;
1567;SDS011;777;47.156;8.326;2023-12-04T07:06:57;129.98;;;54.67;;
1567;SDS011;777;47.156;8.326;2023-12-04T07:09:30;115.80;;;53.42;;
1567;SDS011;777;47.156;8.326;2023-12-04T07:11:57;112.18;;;51.30;;
1567;SDS011;777;47.156;8.326;2023-12-04T07:14:25;113.25;;;53.17;;
1567;SDS011;777;47.156;8.326;2023-12-04T07:16:52;101.03;;;50.30;;
1567;SDS011;777;47.156;8.326;2023-12-04T07:19:19;105.75;;;52.58;;
1567;SDS011;777;47.156;8.326;2023-12-04T07:21:47;100.13;;;50.78;;
1567;SDS011;777;47.156;8.326;2023-12-04T07:24:15;104.03;;;51.53;;
1567;SDS011;777;47.156;8.326;2023-12-04T07:26:42;105.07;;;52.47;;
1567;SDS011;777;47.156;8.326;2023-12-04T07:29:09;187.85;;;67.85;;
1567;SDS011;777;47.156;8.326;2023-12-04T07:31:38;166.38;;;68.18;;
1567;SDS011;777;47.156;8.326;2023-12-04T07:34:05;170.18;;;68.65;;
1567;SDS011;777;47.156;8.326;2023-12-04T07:36:32;167.43;;;67.70;;
1567;SDS011;777;47.156;8.326;2023-12-04T07:38:59;166.35;;;67.80;;
1567;SDS011;777;47.156;8.326;2023-12-04T07:41:26;189.85;;;70.97;;
1567;SDS011;777;47.156;8.326;2023-12-04T07:43:53;178.88;;;71.72;;
1567;SDS011;777;47.156;8.326;2023-12-04T07:46:21;153.73;;;64.15;;
1567;SDS011;777;47.156;8.326;2023-12-04T07:48:49;130.63;;;61.08;;
1567;SDS011;777;47.156;8.326;2023-12-04T07:51:16;116.22;;;59.17;;
1567;SDS011;777;47.156;8.326;2023-12-04T07:53:42;108.05;;;56.78;;
1567;SDS011;777;47.156;8.326;2023-12-04T07:56:11;114.65;;;59.17;;
1567;SDS011;777;47.156;8.326;2023-12-04T07:58:38;107.68;;;57.90;;
1567;SDS011;777;47.156;8.326;2023-12-04T08:01:05;105.07;;;56.00;;
1567;SDS011;777;47.156;8.326;2023-12-04T08:03:32;106.22;;;57.13;;
1567;SDS011;777;47.156;8.326;2023-12-04T08:06:01;97.85;;;55.60;;
1567;SDS011;777;47.156;8.326;2023-12-04T08:08:28;107.15;;;57.70;;
1567;SDS011;777;47.156;8.326;2023-12-04T08:10:56;110.38;;;59.15;;
1567;SDS011;777;47.156;8.326;2023-12-04T08:13:23;100.35;;;55.72;;
1567;SDS011;777;47.156;8.326;2023-12-04T08:15:50;88.45;;;52.97;;
1567;SDS011;777;47.156;8.326;2023-12-04T08:18:17;91.75;;;53.70;;
1567;SDS011;777;47.156;8.326;2023-12-04T08:20:44;84.68;;;51.53;;
1567;SDS011;777;47.156;8.326;2023-12-04T08:23:12;84.68;;;53.00;;
1567;SDS011;777;47.156;8.326;2023-12-04T08:25:40;81.70;;;50.80;;
1567;SDS011;777;47.156;8.326;2023-12-04T08:28:07;86.00;;;52.97;;
1567;SDS011;777;47.156;8.326;2023-12-04T08:30:34;83.75;;;52.38;;
1567;SDS011;777;47.156;8.326;2023-12-04T08:33:01;80.93;;;50.10;;
1567;SDS011;777;47.156;8.326;2023-12-04T08:35:28;79.35;;;48.15;;
1567;SDS011;777;47.156;8.326;2023-12-04T08:37:55;91.13;;;53.58;;
1567;SDS011;777;47.156;8.326;2023-12-04T08:40:23;86.35;;;51.92;;
1567;SDS011;777;47.156;8.326;2023-12-04T08:42:50;98.07;;;54.63;;
1567;SDS011;777;47.156;8.326;2023-12-04T08:45:17;91.18;;;51.67;;
1567;SDS011;777;47.156;8.326;2023-12-04T08:47:44;92.88;;;52.47;;
1567;SDS011;777;47.156;8.326;2023-12-04T08:50:11;88.50;;;51.35;;
1567;SDS011;777;47.156;8.326;2023-12-04T08:52:38;93.18;;;52.40;;
1567;SDS011;777;47.156;8.326;2023-12-04T08:55:06;98.68;;;55.58;;
1567;SDS011;777;47.156;8.326;2023-12-04T08:57:35;106.55;;;56.90;;
1567;SDS011;777;47.156;8.326;2023-12-04T09:00:02;103.45;;;55.53;;
1567;SDS011;777;47.156;8.326;2023-12-04T09:02:29;109.97;;;57.00;;
1567;SDS011;777;47.156;8.326;2023-12-04T09:04:56;101.10;;;54.70;;
1567;SDS011;777;47.156;8.326;2023-12-04T09:07:24;97.22;;;53.33;;
1567;SDS011;777;47.156;8.326;2023-12-04T09:09:50;93.00;;;53.22;;
1567;SDS011;777;47.156;8.326;2023-12-04T09:12:17;95.38;;;51.08;;
1567;SDS011;777;47.156;8.326;2023-12-04T09:14:46;91.75;;;52.47;;
1567;SDS011;777;47.156;8.326;2023-12-04T09:17:13;89.78;;;51.92;;
1567;SDS011;777;47.156;8.326;2023-12-04T09:19:40;90.22;;;52.03;;
1567;SDS011;777;47.156;8.326;2023-12-04T09:22:07;86.80;;;50.92;;
1567;SDS011;777;47.156;8.326;2023-12-04T09:24:34;85.40;;;50.28;;
1567;SDS011;777;47.156;8.326;2023-12-04T09:27:01;90.20;;;52.72;;
1567;SDS011;777;47.156;8.326;2023-12-04T09:29:28;81.40;;;49.53;;
1567;SDS011;777;47.156;8.326;2023-12-04T09:31:57;96.75;;;54.03;;
1567;SDS011;777;47.156;8.326;2023-12-04T09:34:25;96.78;;;54.80;;
1567;SDS011;777;47.156;8.326;2023-12-04T09:36:52;94.57;;;53.88;;
1567;SDS011;777;47.156;8.326;2023-12-04T09:39:19;90.63;;;52.05;;
1567;SDS011;777;47.156;8.326;2023-12-04T09:41:46;97.82;;;50.85;;
1567;SDS011;777;47.156;8.326;2023-12-04T09:44:13;80.22;;;49.72;;
1567;SDS011;777;47.156;8.326;2023-12-04T09:46:42;90.40;;;51.08;;
1567;SDS011;777;47.156;8.326;2023-12-04T09:49:10;147.95;;;47.75;;
1567;SDS011;777;47.156;8.326;2023-12-04T09:51:37;73.90;;;47.25;;
1567;SDS011;777;47.156;8.326;2023-12-04T09:54:05;72.75;;;46.20;;
1567;SDS011;777;47.156;8.326;2023-12-04T09:56:33;69.95;;;45.22;;
1567;SDS011;777;47.156;8.326;2023-12-04T09:59:01;73.82;;;45.95;;
1567;SDS011;777;47.156;8.326;2023-12-04T10:01:30;63.45;;;42.60;;
1567;SDS011;777;47.156;8.326;2023-12-04T10:03:57;65.15;;;44.20;;
1567;SDS011;777;47.156;8.326;2023-12-04T10:06:27;63.30;;;42.00;;
1567;SDS011;777;47.156;8.326;2023-12-04T10:08:55;58.17;;;40.17;;
1567;SDS011;777;47.156;8.326;2023-12-04T10:11:23;53.22;;;37.53;;
1567;SDS011;777;47.156;8.326;2023-12-04T10:13:52;46.92;;;33.28;;
1567;SDS011;777;47.156;8.326;2023-12-04T10:19:16;50.97;;;33.42;;
1567;SDS011;777;47.156;8.326;2023-12-04T10:21:46;47.08;;;30.67;;
1567;SDS011;777;47.156;8.326;2023-12-04T10:24:26;48.38;;;31.48;;
1567;SDS011;777;47.156;8.326;2023-12-04T10:26:54;49.63;;;32.20;;
1567;SDS011;777;47.156;8.326;2023-12-04T10:29:22;53.28;;;33.65;;
1567;SDS011;777;47.156;8.326;2023-12-04T10:31:49;54.72;;;35.22;;
1567;SDS011;777;47.156;8.326;2023-12-04T10:34:18;52.05;;;33.45;;
1567;SDS011;777;47.156;8.326;2023-12-04T10:36:47;50.55;;;33.33;;
1567;SDS011;777;47.156;8.326;2023-12-04T10:39:14;51.40;;;33.33;;
1567;SDS011;777;47.156;8.326;2023-12-04T10:41:43;49.05;;;31.20;;
1567;SDS011;777;47.156;8.326;2023-12-04T10:44:14;52.70;;;33.20;;
1567;SDS011;777;47.156;8.326;2023-12-04T10:46:43;51.88;;;33.45;;
1567;SDS011;777;47.156;8.326;2023-12-04T10:49:13;47.80;;;31.98;;
1567;SDS011;777;47.156;8.326;2023-12-04T10:51:41;50.15;;;31.35;;
1567;SDS011;777;47.156;8.326;2023-12-04T10:54:11;50.53;;;31.83;;
1567;SDS011;777;47.156;8.326;2023-12-04T10:56:39;47.78;;;30.98;;
1567;SDS011;777;47.156;8.326;2023-12-04T10:59:09;50.83;;;32.55;;
1567;SDS011;777;47.156;8.326;2023-12-04T11:01:38;48.35;;;32.00;;
1567;SDS011;777;47.156;8.326;2023-12-04T11:04:08;44.28;;;31.15;;
1567;SDS011;777;47.156;8.326;2023-12-04T11:06:43;54.88;;;35.30;;
1567;SDS011;777;47.156;8.326;2023-12-04T11:09:16;51.55;;;32.38;;
1567;SDS011;777;47.156;8.326;2023-12-04T11:11:46;49.42;;;32.47;;
1567;SDS011;777;47.156;8.326;2023-12-04T11:14:19;50.45;;;33.97;;
1567;SDS011;777;47.156;8.326;2023-12-04T11:16:49;56.45;;;34.72;;
1567;SDS011;777;47.156;8.326;2023-12-04T11:19:23;44.35;;;31.75;;
1567;SDS011;777;47.156;8.326;2023-12-04T11:21:55;47.85;;;32.75;;
1567;SDS011;777;47.156;8.326;2023-12-04T11:24:26;46.30;;;32.15;;
1567;SDS011;777;47.156;8.326;2023-12-04T11:26:53;46.65;;;31.55;;
1567;SDS011;777;47.156;8.326;2023-12-04T11:29:21;50.13;;;33.67;;
1567;SDS011;777;47.156;8.326;2023-12-04T11:31:49;49.75;;;32.53;;
1567;SDS011;777;47.156;8.326;2023-12-04T11:34:16;47.38;;;32.28;;
1567;SDS011;777;47.156;8.326;2023-12-04T11:36:43;54.15;;;35.03;;
1567;SDS011;777;47.156;8.326;2023-12-04T11:39:11;53.88;;;36.10;;
1567;SDS011;777;47.156;8.326;2023-12-04T11:41:39;54.25;;;35.95;;
1567;SDS011;777;47.156;8.326;2023-12-04T11:44:11;51.58;;;35.78;;
1567;SDS011;777;47.156;8.326;2023-12-04T11:46:39;55.83;;;37.30;;
1567;SDS011;777;47.156;8.326;2023-12-04T11:49:28;54.80;;;37.42;;
1567;SDS011;777;47.156;8.326;2023-12-04T11:54:22;55.03;;;39.45;;
1567;SDS011;777;47.156;8.326;2023-12-04T11:57:00;56.00;;;39.30;;
1567;SDS011;777;47.156;8.326;2023-12-04T11:59:46;59.53;;;41.53;;
1567;SDS011;777;47.156;8.326;2023-12-04T12:02:14;61.63;;;41.80;;
1567;SDS011;777;47.156;8.326;2023-12-04T12:04:42;60.20;;;43.13;;
1567;SDS011;777;47.156;8.326;2023-12-04T12:07:10;59.78;;;41.15;;
1567;SDS011;777;47.156;8.326;2023-12-04T12:09:37;64.72;;;43.63;;
1567;SDS011;777;47.156;8.326;2023-12-04T12:12:06;72.55;;;49.13;;
1567;SDS011;777;47.156;8.326;2023-12-04T12:14:34;74.63;;;48.20;;
1567;SDS011;777;47.156;8.326;2023-12-04T12:17:01;73.82;;;47.65;;
1567;SDS011;777;47.156;8.326;2023-12-04T12:19:28;76.20;;;48.47;;
1567;SDS011;777;47.156;8.326;2023-12-04T12:21:55;73.85;;;48.38;;
1567;SDS011;777;47.156;8.326;2023-12-04T12:24:23;69.50;;;45.50;;
1567;SDS011;777;47.156;8.326;2023-12-04T12:26:50;70.13;;;45.58;;
1567;SDS011;777;47.156;8.326;2023-12-04T12:29:18;70.78;;;44.72;;
1567;SDS011;777;47.156;8.326;2023-12-04T12:31:45;66.18;;;43.28;;
1567;SDS011;777;47.156;8.326;2023-12-04T12:34:12;60.28;;;42.35;;
1567;SDS011;777;47.156;8.326;2023-12-04T12:36:40;63.42;;;41.30;;
1567;SDS011;777;47.156;8.326;2023-12-04T12:39:07;61.25;;;41.92;;
1567;SDS011;777;47.156;8.326;2023-12-04T12:41:34;63.28;;;42.00;;
1567;SDS011;777;47.156;8.326;2023-12-04T12:44:02;59.70;;;41.83;;
1567;SDS011;777;47.156;8.326;2023-12-04T12:46:32;59.40;;;40.40;;
1567;SDS011;777;47.156;8.326;2023-12-04T12:49:00;55.78;;;39.55;;
1567;SDS011;777;47.156;8.326;2023-12-04T12:51:27;50.70;;;34.83;;
1567;SDS011;777;47.156;8.326;2023-12-04T12:53:56;50.58;;;36.15;;
1567;SDS011;777;47.156;8.326;2023-12-04T12:56:24;51.72;;;36.50;;
1567;SDS011;777;47.156;8.326;2023-12-04T12:58:52;54.50;;;38.75;;
1567;SDS011;777;47.156;8.326;2023-12-04T13:01:22;49.30;;;36.90;;
1567;SDS011;777;47.156;8.326;2023-12-04T13:03:51;47.38;;;34.60;;
1567;SDS011;777;47.156;8.326;2023-12-04T13:06:18;46.65;;;33.30;;
1567;SDS011;777;47.156;8.326;2023-12-04T13:08:45;47.40;;;33.33;;
1567;SDS011;777;47.156;8.326;2023-12-04T13:11:12;47.60;;;33.35;;
1567;SDS011;777;47.156;8.326;2023-12-04T13:13:39;47.10;;;33.05;;
1567;SDS011;777;47.156;8.326;2023-12-04T13:16:06;47.65;;;33.90;;
1567;SDS011;777;47.156;8.326;2023-12-04T13:18:34;45.08;;;32.58;;
1567;SDS011;777;47.156;8.326;2023-12-04T13:21:04;46.53;;;32.42;;
1567;SDS011;777;47.156;8.326;2023-12-04T13:23:34;49.30;;;33.78;;
1567;SDS011;777;47.156;8.326;2023-12-04T13:26:01;52.50;;;35.20;;
1567;SDS011;777;47.156;8.326;2023-12-04T13:28:28;47.75;;;32.40;;
1567;SDS011;777;47.156;8.326;2023-12-04T13:30:55;48.30;;;34.58;;
1567;SDS011;777;47.156;8.326;2023-12-04T13:33:22;50.95;;;34.15;;
1567;SDS011;777;47.156;8.326;2023-12-04T13:35:50;50.15;;;34.03;;
1567;SDS011;777;47.156;8.326;2023-12-04T13:38:18;49.80;;;33.72;;
1567;SDS011;777;47.156;8.326;2023-12-04T13:40:45;44.65;;;32.08;;
1567;SDS011;777;47.156;8.326;2023-12-04T13:43:25;45.38;;;31.98;;
1567;SDS011;777;47.156;8.326;2023-12-04T13:46:10;50.10;;;34.60;;
1567;SDS011;777;47.156;8.326;2023-12-04T13:48:37;47.00;;;31.92;;
1567;SDS011;777;47.156;8.326;2023-12-04T13:51:06;47.38;;;33.95;;
1567;SDS011;777;47.156;8.326;2023-12-04T13:53:35;44.88;;;31.95;;
1567;SDS011;777;47.156;8.326;2023-12-04T13:56:05;45.25;;;31.88;;
1567;SDS011;777;47.156;8.326;2023-12-04T13:58:50;45.55;;;32.00;;
1567;SDS011;777;47.156;8.326;2023-12-04T14:01:21;44.47;;;31.40;;
1567;SDS011;777;47.156;8.326;2023-12-04T14:03:50;43.35;;;29.92;;
1567;SDS011;777;47.156;8.326;2023-12-04T14:06:18;39.25;;;29.08;;
1567;SDS011;777;47.156;8.326;2023-12-04T14:08:47;40.88;;;30.27;;
1567;SDS011;777;47.156;8.326;2023-12-04T14:11:14;43.55;;;30.98;;
1567;SDS011;777;47.156;8.326;2023-12-04T14:13:41;46.38;;;31.85;;
1567;SDS011;777;47.156;8.326;2023-12-04T14:16:08;41.75;;;30.15;;
1567;SDS011;777;47.156;8.326;2023-12-04T14:18:35;43.97;;;31.25;;
1567;SDS011;777;47.156;8.326;2023-12-04T14:21:03;46.92;;;32.38;;
1567;SDS011;777;47.156;8.326;2023-12-04T14:23:30;45.83;;;33.33;;
1567;SDS011;777;47.156;8.326;2023-12-04T14:25:58;45.10;;;31.98;;
1567;SDS011;777;47.156;8.326;2023-12-04T14:28:26;45.42;;;33.45;;
1567;SDS011;777;47.156;8.326;2023-12-04T14:30:53;47.58;;;34.17;;
1567;SDS011;777;47.156;8.326;2023-12-04T14:33:21;47.95;;;34.58;;
1567;SDS011;777;47.156;8.326;2023-12-04T14:35:48;45.70;;;32.45;;
1567;SDS011;777;47.156;8.326;2023-12-04T14:38:15;52.45;;;37.85;;
1567;SDS011;777;47.156;8.326;2023-12-04T14:40:42;59.35;;;40.38;;
1567;SDS011;777;47.156;8.326;2023-12-04T14:43:10;57.10;;;38.50;;
1567;SDS011;777;47.156;8.326;2023-12-04T14:45:38;51.30;;;35.88;;
1567;SDS011;777;47.156;8.326;2023-12-04T14:48:05;53.13;;;36.83;;
1567;SDS011;777;47.156;8.326;2023-12-04T14:50:32;55.08;;;37.72;;
1567;SDS011;777;47.156;8.326;2023-12-04T14:53:00;60.65;;;38.83;;
1567;SDS011;777;47.156;8.326;2023-12-04T14:55:40;57.80;;;38.45;;
1567;SDS011;777;47.156;8.326;2023-12-04T14:58:26;56.80;;;37.33;;
1567;SDS011;777;47.156;8.326;2023-12-04T15:01:16;54.22;;;37.25;;
1567;SDS011;777;47.156;8.326;2023-12-04T15:04:01;50.53;;;34.97;;
1567;SDS011;777;47.156;8.326;2023-12-04T15:07:02;59.00;;;37.92;;